sensor_id;sensor_type;location;lat;lon;timestamp;pressure;altitude;pressure_sealevel;temperature
62845;BMP280;48929;47.910;20.390;2023-02-28T00:01:33;100357.75;;;-3.21
62845;BMP280;48929;47.910;20.390;2023-02-28T00:04:04;100366.09;;;-3.21
62845;BMP280;48929;47.910;20.390;2023-02-28T00:06:32;100369.56;;;-3.22
62845;BMP280;48929;47.910;20.390;2023-02-28T00:09:01;100352.03;;;-3.23
62845;BMP280;48929;47.910;20.390;2023-02-28T00:11:30;100357.09;;;-3.23
62845;BMP280;48929;47.910;20.390;2023-02-28T00:13:59;100362.94;;;-3.23
62845;BMP280;48929;47.910;20.390;2023-02-28T00:16:28;100376.19;;;-3.21
62845;BMP280;48929;47.910;20.390;2023-02-28T00:18:59;100390.53;;;-3.21
62845;BMP280;48929;47.910;20.390;2023-02-28T00:21:29;100393.03;;;-3.21
62845;BMP280;48929;47.910;20.390;2023-02-28T00:23:58;100393.69;;;-3.19
62845;BMP280;48929;47.910;20.390;2023-02-28T00:26:27;100398.09;;;-3.21
62845;BMP280;48929;47.910;20.390;2023-02-28T00:28:56;100398.88;;;-3.21
62845;BMP280;48929;47.910;20.390;2023-02-28T00:31:25;100393.03;;;-3.21
62845;BMP280;48929;47.910;20.390;2023-02-28T00:33:54;100400.44;;;-3.20
62845;BMP280;48929;47.910;20.390;2023-02-28T00:36:23;100394.09;;;-3.24
62845;BMP280;48929;47.910;20.390;2023-02-28T00:38:54;100396.28;;;-3.29
62845;BMP280;48929;47.910;20.390;2023-02-28T00:41:23;100397.22;;;-3.30
62845;BMP280;48929;47.910;20.390;2023-02-28T00:43:52;100398.16;;;-3.31
62845;BMP280;48929;47.910;20.390;2023-02-28T00:46:21;100395.78;;;-3.33
62845;BMP280;48929;47.910;20.390;2023-02-28T00:48:50;100394.69;;;-3.38
62845;BMP280;48929;47.910;20.390;2023-02-28T00:51:19;100397.34;;;-3.40
62845;BMP280;48929;47.910;20.390;2023-02-28T00:53:48;100389.31;;;-3.43
62845;BMP280;48929;47.910;20.390;2023-02-28T00:56:19;100392.63;;;-3.43
62845;BMP280;48929;47.910;20.390;2023-02-28T00:58:48;100392.13;;;-3.46
62845;BMP280;48929;47.910;20.390;2023-02-28T01:01:17;100389.31;;;-3.43
62845;BMP280;48929;47.910;20.390;2023-02-28T01:03:45;100387.28;;;-3.40
62845;BMP280;48929;47.910;20.390;2023-02-28T01:06:15;100392.16;;;-3.38
62845;BMP280;48929;47.910;20.390;2023-02-28T01:08:44;100394.22;;;-3.34
62845;BMP280;48929;47.910;20.390;2023-02-28T01:11:19;100405.56;;;-3.29
62845;BMP280;48929;47.910;20.390;2023-02-28T01:13:48;100398.81;;;-3.29
62845;BMP280;48929;47.910;20.390;2023-02-28T01:16:17;100400.38;;;-3.28
62845;BMP280;48929;47.910;20.390;2023-02-28T01:18:45;100404.47;;;-3.27
62845;BMP280;48929;47.910;20.390;2023-02-28T01:21:16;100411.25;;;-3.27
62845;BMP280;48929;47.910;20.390;2023-02-28T01:23:46;100416.16;;;-3.26
62845;BMP280;48929;47.910;20.390;2023-02-28T01:26:19;100412.13;;;-3.19
62845;BMP280;48929;47.910;20.390;2023-02-28T01:28:49;100414.50;;;-3.17
62845;BMP280;48929;47.910;20.390;2023-02-28T01:31:18;100410.88;;;-3.15
62845;BMP280;48929;47.910;20.390;2023-02-28T01:33:47;100411.31;;;-3.19
62845;BMP280;48929;47.910;20.390;2023-02-28T01:36:18;100424.06;;;-3.21
62845;BMP280;48929;47.910;20.390;2023-02-28T01:38:47;100418.25;;;-3.21
62845;BMP280;48929;47.910;20.390;2023-02-28T01:41:20;100419.06;;;-3.13
62845;BMP280;48929;47.910;20.390;2023-02-28T01:43:57;100419.38;;;-3.08
62845;BMP280;48929;47.910;20.390;2023-02-28T01:46:26;100424.13;;;-3.05
62845;BMP280;48929;47.910;20.390;2023-02-28T01:49:00;100424.00;;;-2.95
62845;BMP280;48929;47.910;20.390;2023-02-28T01:51:33;100425.81;;;-2.87
62845;BMP280;48929;47.910;20.390;2023-02-28T01:54:06;100419.97;;;-2.88
62845;BMP280;48929;47.910;20.390;2023-02-28T01:56:44;100424.06;;;-2.87
62845;BMP280;48929;47.910;20.390;2023-02-28T01:59:21;100419.03;;;-2.87
62845;BMP280;48929;47.910;20.390;2023-02-28T02:01:51;100420.75;;;-2.87
62845;BMP280;48929;47.910;20.390;2023-02-28T02:04:21;100424.53;;;-2.83
62845;BMP280;48929;47.910;20.390;2023-02-28T02:06:52;100416.19;;;-2.76
62845;BMP280;48929;47.910;20.390;2023-02-28T02:09:20;100406.28;;;-2.69
62845;BMP280;48929;47.910;20.390;2023-02-28T02:11:51;100416.38;;;-2.69
62845;BMP280;48929;47.910;20.390;2023-02-28T02:14:33;100405.34;;;-2.68
62845;BMP280;48929;47.910;20.390;2023-02-28T02:17:15;100409.44;;;-2.67
62845;BMP280;48929;47.910;20.390;2023-02-28T02:25:59;100411.53;;;-2.54
62845;BMP280;48929;47.910;20.390;2023-02-28T02:31:57;100418.03;;;-2.36
62845;BMP280;48929;47.910;20.390;2023-02-28T02:34:44;100421.53;;;-2.28
62845;BMP280;48929;47.910;20.390;2023-02-28T02:37:25;100408.91;;;-2.20
62845;BMP280;48929;47.910;20.390;2023-02-28T02:40:03;100415.06;;;-2.15
62845;BMP280;48929;47.910;20.390;2023-02-28T02:42:44;100419.50;;;-2.09
62845;BMP280;48929;47.910;20.390;2023-02-28T02:45:17;100420.56;;;-2.03
62845;BMP280;48929;47.910;20.390;2023-02-28T02:47:48;100425.94;;;-1.98
62845;BMP280;48929;47.910;20.390;2023-02-28T02:50:23;100424.69;;;-1.94
62845;BMP280;48929;47.910;20.390;2023-02-28T02:52:57;100424.19;;;-1.89
62845;BMP280;48929;47.910;20.390;2023-02-28T02:55:31;100418.69;;;-1.85
62845;BMP280;48929;47.910;20.390;2023-02-28T02:58:04;100420.28;;;-1.84
62845;BMP280;48929;47.910;20.390;2023-02-28T03:00:41;100416.47;;;-1.80
62845;BMP280;48929;47.910;20.390;2023-02-28T03:03:12;100425.16;;;-1.74
62845;BMP280;48929;47.910;20.390;2023-02-28T03:05:48;100422.13;;;-1.70
62845;BMP280;48929;47.910;20.390;2023-02-28T03:08:17;100421.50;;;-1.63
62845;BMP280;48929;47.910;20.390;2023-02-28T03:10:49;100430.03;;;-1.64
62845;BMP280;48929;47.910;20.390;2023-02-28T03:16:23;100427.97;;;-1.61
62845;BMP280;48929;47.910;20.390;2023-02-28T03:19:04;100430.34;;;-1.59
62845;BMP280;48929;47.910;20.390;2023-02-28T03:21:43;100430.03;;;-1.56
62845;BMP280;48929;47.910;20.390;2023-02-28T03:24:15;100438.03;;;-1.53
62845;BMP280;48929;47.910;20.390;2023-02-28T03:26:52;100431.41;;;-1.54
62845;BMP280;48929;47.910;20.390;2023-02-28T03:29:28;100435.25;;;-1.58
62845;BMP280;48929;47.910;20.390;2023-02-28T03:32:05;100433.81;;;-1.60
62845;BMP280;48929;47.910;20.390;2023-02-28T03:34:44;100426.56;;;-1.63
62845;BMP280;48929;47.910;20.390;2023-02-28T03:37:20;100432.25;;;-1.61
62845;BMP280;48929;47.910;20.390;2023-02-28T03:39:53;100428.59;;;-1.59
62845;BMP280;48929;47.910;20.390;2023-02-28T03:42:27;100438.19;;;-1.54
62845;BMP280;48929;47.910;20.390;2023-02-28T03:44:58;100436.00;;;-1.49
62845;BMP280;48929;47.910;20.390;2023-02-28T03:47:31;100432.34;;;-1.47
62845;BMP280;48929;47.910;20.390;2023-02-28T03:50:05;100428.09;;;-1.46
62845;BMP280;48929;47.910;20.390;2023-02-28T03:52:39;100421.13;;;-1.44
62845;BMP280;48929;47.910;20.390;2023-02-28T03:55:12;100429.19;;;-1.41
62845;BMP280;48929;47.910;20.390;2023-02-28T03:57:50;100423.16;;;-1.40
62845;BMP280;48929;47.910;20.390;2023-02-28T04:00:26;100429.47;;;-1.36
62845;BMP280;48929;47.910;20.390;2023-02-28T04:02:56;100421.59;;;-1.32
62845;BMP280;48929;47.910;20.390;2023-02-28T04:05:26;100426.66;;;-1.32
62845;BMP280;48929;47.910;20.390;2023-02-28T04:08:05;100420.50;;;-1.30
62845;BMP280;48929;47.910;20.390;2023-02-28T04:10:34;100415.09;;;-1.27
62845;BMP280;48929;47.910;20.390;2023-02-28T04:13:03;100416.50;;;-1.24
62845;BMP280;48929;47.910;20.390;2023-02-28T04:15:32;100417.91;;;-1.22
62845;BMP280;48929;47.910;20.390;2023-02-28T04:18:00;100415.84;;;-1.18
62845;BMP280;48929;47.910;20.390;2023-02-28T04:20:29;100413.00;;;-1.15
62845;BMP280;48929;47.910;20.390;2023-02-28T04:22:58;100405.69;;;-1.10
62845;BMP280;48929;47.910;20.390;2023-02-28T04:25:29;100409.19;;;-1.11
62845;BMP280;48929;47.910;20.390;2023-02-28T04:27:58;100409.50;;;-1.14
62845;BMP280;48929;47.910;20.390;2023-02-28T04:30:27;100413.78;;;-1.15
62845;BMP280;48929;47.910;20.390;2023-02-28T04:32:56;100410.31;;;-1.14
62845;BMP280;48929;47.910;20.390;2023-02-28T04:35:25;100412.66;;;-1.12
62845;BMP280;48929;47.910;20.390;2023-02-28T04:37:54;100409.19;;;-1.11
62845;BMP280;48929;47.910;20.390;2023-02-28T04:40:23;100409.03;;;-1.10
62845;BMP280;48929;47.910;20.390;2023-02-28T04:42:53;100407.75;;;-1.06
62845;BMP280;48929;47.910;20.390;2023-02-28T04:45:22;100413.41;;;-1.04
62845;BMP280;48929;47.910;20.390;2023-02-28T04:47:52;100417.50;;;-1.03
62845;BMP280;48929;47.910;20.390;2023-02-28T04:50:20;100409.91;;;-1.03
62845;BMP280;48929;47.910;20.390;2023-02-28T04:52:49;100403.75;;;-1.00
62845;BMP280;48929;47.910;20.390;2023-02-28T04:55:17;100404.19;;;-0.96
62845;BMP280;48929;47.910;20.390;2023-02-28T04:57:46;100401.19;;;-0.92
62845;BMP280;48929;47.910;20.390;2023-02-28T05:00:17;100394.53;;;-0.93
62845;BMP280;48929;47.910;20.390;2023-02-28T05:02:47;100390.09;;;-0.91
62845;BMP280;48929;47.910;20.390;2023-02-28T05:05:16;100399.72;;;-0.86
62845;BMP280;48929;47.910;20.390;2023-02-28T05:07:45;100400.19;;;-0.83
62845;BMP280;48929;47.910;20.390;2023-02-28T05:10:14;100397.75;;;-0.76
62845;BMP280;48929;47.910;20.390;2023-02-28T05:12:42;100395.34;;;-0.70
62845;BMP280;48929;47.910;20.390;2023-02-28T05:15:12;100392.16;;;-0.63
62845;BMP280;48929;47.910;20.390;2023-02-28T05:17:43;100398.28;;;-0.58
62845;BMP280;48929;47.910;20.390;2023-02-28T05:20:12;100397.78;;;-0.53
62845;BMP280;48929;47.910;20.390;2023-02-28T05:22:42;100404.06;;;-0.49
62845;BMP280;48929;47.910;20.390;2023-02-28T05:25:13;100409.06;;;-0.41
62845;BMP280;48929;47.910;20.390;2023-02-28T05:27:43;100400.97;;;-0.37
62845;BMP280;48929;47.910;20.390;2023-02-28T05:30:13;100411.56;;;-0.33
62845;BMP280;48929;47.910;20.390;2023-02-28T05:32:44;100414.41;;;-0.28
62845;BMP280;48929;47.910;20.390;2023-02-28T05:35:20;100417.81;;;-0.21
62845;BMP280;48929;47.910;20.390;2023-02-28T05:37:49;100424.72;;;-0.15
62845;BMP280;48929;47.910;20.390;2023-02-28T05:40:20;100426.75;;;-0.10
62845;BMP280;48929;47.910;20.390;2023-02-28T05:42:52;100434.81;;;-0.07
62845;BMP280;48929;47.910;20.390;2023-02-28T05:45:20;100437.00;;;-0.04
62845;BMP280;48929;47.910;20.390;2023-02-28T05:47:53;100434.28;;;-0.02
62845;BMP280;48929;47.910;20.390;2023-02-28T05:50:22;100442.31;;;0.02
62845;BMP280;48929;47.910;20.390;2023-02-28T05:52:51;100440.84;;;0.07
62845;BMP280;48929;47.910;20.390;2023-02-28T05:55:20;100440.69;;;0.09
62845;BMP280;48929;47.910;20.390;2023-02-28T05:57:49;100448.91;;;0.11
62845;BMP280;48929;47.910;20.390;2023-02-28T06:00:18;100442.69;;;0.13
62845;BMP280;48929;47.910;20.390;2023-02-28T06:02:47;100439.03;;;0.16
62845;BMP280;48929;47.910;20.390;2023-02-28T06:05:17;100436.00;;;0.20
62845;BMP280;48929;47.910;20.390;2023-02-28T06:07:46;100443.25;;;0.23
62845;BMP280;48929;47.910;20.390;2023-02-28T06:10:15;100442.13;;;0.26
62845;BMP280;48929;47.910;20.390;2023-02-28T06:12:45;100433.97;;;0.30
62845;BMP280;48929;47.910;20.390;2023-02-28T06:15:15;100432.03;;;0.32
62845;BMP280;48929;47.910;20.390;2023-02-28T06:17:44;100430.91;;;0.35
62845;BMP280;48929;47.910;20.390;2023-02-28T06:20:12;100441.47;;;0.39
62845;BMP280;48929;47.910;20.390;2023-02-28T06:22:43;100444.13;;;0.45
62845;BMP280;48929;47.910;20.390;2023-02-28T06:25:12;100446.94;;;0.50
62845;BMP280;48929;47.910;20.390;2023-02-28T06:27:40;100449.69;;;0.55
62845;BMP280;48929;47.910;20.390;2023-02-28T06:30:11;100456.78;;;0.60
62845;BMP280;48929;47.910;20.390;2023-02-28T06:32:43;100448.03;;;0.62
62845;BMP280;48929;47.910;20.390;2023-02-28T06:35:12;100449.44;;;0.65
62845;BMP280;48929;47.910;20.390;2023-02-28T06:37:42;100440.69;;;0.67
62845;BMP280;48929;47.910;20.390;2023-02-28T06:40:12;100436.41;;;0.68
62845;BMP280;48929;47.910;20.390;2023-02-28T06:42:41;100441.31;;;0.69
62845;BMP280;48929;47.910;20.390;2023-02-28T06:45:11;100435.09;;;0.72
62845;BMP280;48929;47.910;20.390;2023-02-28T06:47:40;100433.25;;;0.81
62845;BMP280;48929;47.910;20.390;2023-02-28T06:50:12;100437.88;;;0.92
62845;BMP280;48929;47.910;20.390;2023-02-28T06:52:42;100445.84;;;1.03
62845;BMP280;48929;47.910;20.390;2023-02-28T06:55:12;100442.22;;;1.13
62845;BMP280;48929;47.910;20.390;2023-02-28T06:57:41;100436.25;;;1.20
62845;BMP280;48929;47.910;20.390;2023-02-28T07:00:11;100437.31;;;1.32
62845;BMP280;48929;47.910;20.390;2023-02-28T07:02:40;100442.16;;;1.49
62845;BMP280;48929;47.910;20.390;2023-02-28T07:05:09;100435.44;;;1.62
62845;BMP280;48929;47.910;20.390;2023-02-28T07:07:38;100439.69;;;1.77
62845;BMP280;48929;47.910;20.390;2023-02-28T07:10:12;100431.91;;;1.85
62845;BMP280;48929;47.910;20.390;2023-02-28T07:12:46;100432.97;;;1.97
62845;BMP280;48929;47.910;20.390;2023-02-28T07:15:15;100434.03;;;2.09
62845;BMP280;48929;47.910;20.390;2023-02-28T07:17:44;100432.72;;;2.20
62845;BMP280;48929;47.910;20.390;2023-02-28T07:20:13;100432.72;;;2.20
62845;BMP280;48929;47.910;20.390;2023-02-28T07:22:42;100437.09;;;2.26
62845;BMP280;48929;47.910;20.390;2023-02-28T07:25:12;100436.31;;;2.32
62845;BMP280;48929;47.910;20.390;2023-02-28T07:27:41;100436.16;;;2.40
62845;BMP280;48929;47.910;20.390;2023-02-28T07:30:11;100436.75;;;2.42
62845;BMP280;48929;47.910;20.390;2023-02-28T07:32:40;100437.75;;;2.48
62845;BMP280;48929;47.910;20.390;2023-02-28T07:35:11;100444.47;;;2.55
62845;BMP280;48929;47.910;20.390;2023-02-28T07:37:42;100442.91;;;2.61
62845;BMP280;48929;47.910;20.390;2023-02-28T07:40:14;100448.59;;;2.69
62845;BMP280;48929;47.910;20.390;2023-02-28T07:42:46;100443.75;;;2.74
62845;BMP280;48929;47.910;20.390;2023-02-28T07:45:15;100445.94;;;2.84
62845;BMP280;48929;47.910;20.390;2023-02-28T07:47:44;100453.41;;;2.92
62845;BMP280;48929;47.910;20.390;2023-02-28T07:50:15;100459.09;;;3.01
62845;BMP280;48929;47.910;20.390;2023-02-28T07:52:44;100460.09;;;3.06
62845;BMP280;48929;47.910;20.390;2023-02-28T07:55:15;100459.31;;;3.12
62845;BMP280;48929;47.910;20.390;2023-02-28T07:57:47;100458.75;;;3.24
62845;BMP280;48929;47.910;20.390;2023-02-28T08:00:16;100464.47;;;3.32
62845;BMP280;48929;47.910;20.390;2023-02-28T08:02:45;100461.53;;;3.35
62845;BMP280;48929;47.910;20.390;2023-02-28T08:05:14;100454.09;;;3.34
62845;BMP280;48929;47.910;20.390;2023-02-28T08:07:44;100451.53;;;3.34
62845;BMP280;48929;47.910;20.390;2023-02-28T08:10:16;100464.28;;;3.34
62845;BMP280;48929;47.910;20.390;2023-02-28T08:12:45;100463.50;;;3.33
62845;BMP280;48929;47.910;20.390;2023-02-28T08:15:14;100466.44;;;3.37
62845;BMP280;48929;47.910;20.390;2023-02-28T08:17:43;100467.59;;;3.41
62845;BMP280;48929;47.910;20.390;2023-02-28T08:20:12;100473.69;;;3.46
62845;BMP280;48929;47.910;20.390;2023-02-28T08:22:40;100468.00;;;3.58
62845;BMP280;48929;47.910;20.390;2023-02-28T08:25:19;100468.22;;;3.63
62845;BMP280;48929;47.910;20.390;2023-02-28T08:27:50;100474.09;;;3.70
62845;BMP280;48929;47.910;20.390;2023-02-28T08:30:19;100474.69;;;3.78
62845;BMP280;48929;47.910;20.390;2023-02-28T08:32:48;100478.63;;;3.88
62845;BMP280;48929;47.910;20.390;2023-02-28T08:35:16;100474.06;;;4.03
62845;BMP280;48929;47.910;20.390;2023-02-28T08:37:47;100470.28;;;4.18
62845;BMP280;48929;47.910;20.390;2023-02-28T08:40:17;100474.59;;;4.31
62845;BMP280;48929;47.910;20.390;2023-02-28T08:42:53;100466.88;;;4.44
62845;BMP280;48929;47.910;20.390;2023-02-28T08:45:22;100473.56;;;4.52
62845;BMP280;48929;47.910;20.390;2023-02-28T08:47:51;100472.72;;;4.58
62845;BMP280;48929;47.910;20.390;2023-02-28T08:50:23;100475.06;;;4.66
62845;BMP280;48929;47.910;20.390;2023-02-28T08:52:52;100471.94;;;4.57
62845;BMP280;48929;47.910;20.390;2023-02-28T08:55:21;100473.94;;;4.55
62845;BMP280;48929;47.910;20.390;2023-02-28T08:57:50;100483.34;;;4.62
62845;BMP280;48929;47.910;20.390;2023-02-28T09:00:23;100482.31;;;4.69
62845;BMP280;48929;47.910;20.390;2023-02-28T09:02:51;100475.22;;;4.71
62845;BMP280;48929;47.910;20.390;2023-02-28T09:05:21;100492.66;;;4.87
62845;BMP280;48929;47.910;20.390;2023-02-28T09:07:50;100482.56;;;4.99
62845;BMP280;48929;47.910;20.390;2023-02-28T09:10:19;100483.06;;;5.14
62845;BMP280;48929;47.910;20.390;2023-02-28T09:12:49;100478.34;;;5.18
62845;BMP280;48929;47.910;20.390;2023-02-28T09:15:17;100481.88;;;5.17
62845;BMP280;48929;47.910;20.390;2023-02-28T09:17:48;100476.13;;;5.21
62845;BMP280;48929;47.910;20.390;2023-02-28T09:20:17;100476.50;;;5.25
62845;BMP280;48929;47.910;20.390;2023-02-28T09:22:49;100481.34;;;5.33
62845;BMP280;48929;47.910;20.390;2023-02-28T09:25:18;100483.88;;;5.40
62845;BMP280;48929;47.910;20.390;2023-02-28T09:27:47;100476.34;;;5.45
62845;BMP280;48929;47.910;20.390;2023-02-28T09:30:16;100474.13;;;5.55
62845;BMP280;48929;47.910;20.390;2023-02-28T09:32:45;100479.03;;;5.56
62845;BMP280;48929;47.910;20.390;2023-02-28T09:35:21;100475.69;;;5.56
62845;BMP280;48929;47.910;20.390;2023-02-28T09:37:51;100480.59;;;5.57
62845;BMP280;48929;47.910;20.390;2023-02-28T09:40:22;100486.06;;;5.61
62845;BMP280;48929;47.910;20.390;2023-02-28T09:42:54;100486.22;;;5.66
62845;BMP280;48929;47.910;20.390;2023-02-28T09:45:25;100487.59;;;5.68
62845;BMP280;48929;47.910;20.390;2023-02-28T09:47:58;100482.81;;;5.72
62845;BMP280;48929;47.910;20.390;2023-02-28T09:50:35;100492.81;;;5.73
62845;BMP280;48929;47.910;20.390;2023-02-28T09:53:14;100481.09;;;5.66
62845;BMP280;48929;47.910;20.390;2023-02-28T09:55:48;100494.09;;;5.64
62845;BMP280;48929;47.910;20.390;2023-02-28T09:58:22;100492.03;;;5.55
62845;BMP280;48929;47.910;20.390;2023-02-28T10:00:57;100506.59;;;5.48
62845;BMP280;48929;47.910;20.390;2023-02-28T10:03:29;100499.13;;;5.46
62845;BMP280;48929;47.910;20.390;2023-02-28T10:06:07;100497.81;;;5.44
62845;BMP280;48929;47.910;20.390;2023-02-28T10:08:44;100497.94;;;5.49
62845;BMP280;48929;47.910;20.390;2023-02-28T10:11:16;100498.91;;;5.54
62845;BMP280;48929;47.910;20.390;2023-02-28T10:13:53;100493.31;;;5.64
62845;BMP280;48929;47.910;20.390;2023-02-28T10:16:28;100497.84;;;5.62
62845;BMP280;48929;47.910;20.390;2023-02-28T10:19:03;100501.00;;;5.64
62845;BMP280;48929;47.910;20.390;2023-02-28T10:21:37;100495.16;;;5.75
62845;BMP280;48929;47.910;20.390;2023-02-28T10:24:16;100486.50;;;5.76
62845;BMP280;48929;47.910;20.390;2023-02-28T10:26:48;100487.47;;;5.82
62845;BMP280;48929;47.910;20.390;2023-02-28T10:29:16;100482.34;;;5.82
62845;BMP280;48929;47.910;20.390;2023-02-28T10:31:45;100477.59;;;5.85
62845;BMP280;48929;47.910;20.390;2023-02-28T10:34:14;100483.63;;;5.91
62845;BMP280;48929;47.910;20.390;2023-02-28T10:36:45;100476.22;;;5.83
62845;BMP280;48929;47.910;20.390;2023-02-28T10:39:41;100479.38;;;5.85
62845;BMP280;48929;47.910;20.390;2023-02-28T10:42:22;100481.66;;;5.93
62845;BMP280;48929;47.910;20.390;2023-02-28T10:45:10;100481.78;;;5.98
62845;BMP280;48929;47.910;20.390;2023-02-28T10:47:49;100475.34;;;5.95
62845;BMP280;48929;47.910;20.390;2023-02-28T10:50:39;100474.69;;;6.00
62845;BMP280;48929;47.910;20.390;2023-02-28T10:53:28;100466.56;;;6.03
62845;BMP280;48929;47.910;20.390;2023-02-28T10:56:12;100463.66;;;5.99
62845;BMP280;48929;47.910;20.390;2023-02-28T10:58:49;100460.91;;;6.01
62845;BMP280;48929;47.910;20.390;2023-02-28T11:01:20;100462.97;;;6.11
62845;BMP280;48929;47.910;20.390;2023-02-28T11:03:50;100463.66;;;6.18
62845;BMP280;48929;47.910;20.390;2023-02-28T11:06:20;100451.47;;;6.31
62845;BMP280;48929;47.910;20.390;2023-02-28T11:08:54;100454.19;;;6.36
62845;BMP280;48929;47.910;20.390;2023-02-28T11:11:26;100448.84;;;6.38
62845;BMP280;48929;47.910;20.390;2023-02-28T11:13:57;100445.88;;;6.41
62845;BMP280;48929;47.910;20.390;2023-02-28T11:16:32;100448.13;;;6.49
62845;BMP280;48929;47.910;20.390;2023-02-28T11:19:02;100448.81;;;6.56
62845;BMP280;48929;47.910;20.390;2023-02-28T11:21:34;100443.53;;;6.69
62845;BMP280;48929;47.910;20.390;2023-02-28T11:24:14;100440.22;;;6.80
62845;BMP280;48929;47.910;20.390;2023-02-28T11:26:48;100434.09;;;6.81
62845;BMP280;48929;47.910;20.390;2023-02-28T11:29:20;100433.41;;;6.74
62845;BMP280;48929;47.910;20.390;2023-02-28T11:32:12;100433.41;;;6.74
62845;BMP280;48929;47.910;20.390;2023-02-28T11:34:42;100428.16;;;6.69
62845;BMP280;48929;47.910;20.390;2023-02-28T11:37:13;100423.47;;;6.66
62845;BMP280;48929;47.910;20.390;2023-02-28T11:39:45;100422.34;;;6.62
62845;BMP280;48929;47.910;20.390;2023-02-28T11:42:42;100430.75;;;6.51
62845;BMP280;48929;47.910;20.390;2023-02-28T11:45:28;100430.22;;;6.49
62845;BMP280;48929;47.910;20.390;2023-02-28T11:48:05;100430.81;;;6.63
62845;BMP280;48929;47.910;20.390;2023-02-28T11:50:49;100415.00;;;6.77
62845;BMP280;48929;47.910;20.390;2023-02-28T11:53:27;100412.84;;;6.93
62845;BMP280;48929;47.910;20.390;2023-02-28T11:56:06;100397.91;;;7.13
62845;BMP280;48929;47.910;20.390;2023-02-28T11:58:48;100400.94;;;7.21
62845;BMP280;48929;47.910;20.390;2023-02-28T12:01:30;100387.78;;;7.30
62845;BMP280;48929;47.910;20.390;2023-02-28T12:04:11;100392.22;;;7.22
62845;BMP280;48929;47.910;20.390;2023-02-28T12:06:48;100395.38;;;7.25
62845;BMP280;48929;47.910;20.390;2023-02-28T12:09:36;100395.47;;;7.30
62845;BMP280;48929;47.910;20.390;2023-02-28T12:12:22;100387.09;;;7.34
62845;BMP280;48929;47.910;20.390;2023-02-28T12:15:05;100378.38;;;7.35
62845;BMP280;48929;47.910;20.390;2023-02-28T12:17:54;100392.78;;;7.48
62845;BMP280;48929;47.910;20.390;2023-02-28T12:20:34;100381.38;;;7.55
62845;BMP280;48929;47.910;20.390;2023-02-28T12:23:21;100385.84;;;7.60
62845;BMP280;48929;47.910;20.390;2023-02-28T12:25:58;100378.25;;;7.53
62845;BMP280;48929;47.910;20.390;2023-02-28T12:28:35;100381.88;;;7.52
62845;BMP280;48929;47.910;20.390;2023-02-28T12:31:09;100377.13;;;7.61
62845;BMP280;48929;47.910;20.390;2023-02-28T12:33:41;100370.31;;;7.55
62845;BMP280;48929;47.910;20.390;2023-02-28T12:36:13;100366.31;;;7.59
62845;BMP280;48929;47.910;20.390;2023-02-28T12:38:48;100370.56;;;7.53
62845;BMP280;48929;47.910;20.390;2023-02-28T12:41:22;100365.53;;;7.58
62845;BMP280;48929;47.910;20.390;2023-02-28T12:44:00;100351.09;;;7.52
62845;BMP280;48929;47.910;20.390;2023-02-28T12:46:33;100365.69;;;7.40
62845;BMP280;48929;47.910;20.390;2023-02-28T12:49:08;100359.56;;;7.41
62845;BMP280;48929;47.910;20.390;2023-02-28T12:51:38;100363.69;;;7.42
62845;BMP280;48929;47.910;20.390;2023-02-28T12:54:16;100362.13;;;7.41
62845;BMP280;48929;47.910;20.390;2023-02-28T12:56:52;100363.44;;;7.44
62845;BMP280;48929;47.910;20.390;2023-02-28T12:59:27;100360.56;;;7.52
62845;BMP280;48929;47.910;20.390;2023-02-28T13:05:29;100356.28;;;7.57
62845;BMP280;48929;47.910;20.390;2023-02-28T13:10:58;100354.16;;;7.66
62845;BMP280;48929;47.910;20.390;2023-02-28T13:13:30;100356.16;;;7.76
62845;BMP280;48929;47.910;20.390;2023-02-28T13:16:05;100358.34;;;7.84
62845;BMP280;48929;47.910;20.390;2023-02-28T13:18:36;100356.00;;;7.82
62845;BMP280;48929;47.910;20.390;2023-02-28T13:21:07;100357.09;;;7.86
62845;BMP280;48929;47.910;20.390;2023-02-28T13:23:56;100357.56;;;7.83
62845;BMP280;48929;47.910;20.390;2023-02-28T13:29:34;100344.44;;;7.68
62845;BMP280;48929;47.910;20.390;2023-02-28T13:32:36;100344.91;;;7.53
62845;BMP280;48929;47.910;20.390;2023-02-28T13:38:35;100356.22;;;7.41
62845;BMP280;48929;47.910;20.390;2023-02-28T13:44:20;100358.22;;;7.27
62845;BMP280;48929;47.910;20.390;2023-02-28T13:47:24;100361.56;;;7.28
62845;BMP280;48929;47.910;20.390;2023-02-28T13:50:14;100356.69;;;7.26
62845;BMP280;48929;47.910;20.390;2023-02-28T13:52:50;100355.25;;;7.18
62845;BMP280;48929;47.910;20.390;2023-02-28T13:55:29;100358.03;;;7.17
62845;BMP280;48929;47.910;20.390;2023-02-28T13:58:10;100359.59;;;7.18
62845;BMP280;48929;47.910;20.390;2023-02-28T14:01:12;100357.47;;;7.15
62845;BMP280;48929;47.910;20.390;2023-02-28T14:06:49;100355.47;;;7.17
62845;BMP280;48929;47.910;20.390;2023-02-28T14:09:24;100345.75;;;7.07
62845;BMP280;48929;47.910;20.390;2023-02-28T14:11:53;100339.72;;;7.02
62845;BMP280;48929;47.910;20.390;2023-02-28T14:17:32;100337.53;;;6.94
62845;BMP280;48929;47.910;20.390;2023-02-28T14:20:01;100335.63;;;6.89
62845;BMP280;48929;47.910;20.390;2023-02-28T14:22:54;100335.38;;;6.79
62845;BMP280;48929;47.910;20.390;2023-02-28T14:25:32;100339.94;;;6.77
62845;BMP280;48929;47.910;20.390;2023-02-28T14:28:12;100330.69;;;6.76
62845;BMP280;48929;47.910;20.390;2023-02-28T14:30:59;100336.47;;;6.71
62845;BMP280;48929;47.910;20.390;2023-02-28T14:33:41;100331.53;;;6.58
62845;BMP280;48929;47.910;20.390;2023-02-28T14:36:20;100341.13;;;6.51
62845;BMP280;48929;47.910;20.390;2023-02-28T14:38:53;100339.44;;;6.45
62845;BMP280;48929;47.910;20.390;2023-02-28T14:41:28;100334.06;;;6.35
62845;BMP280;48929;47.910;20.390;2023-02-28T14:43:59;100333.72;;;6.31
62845;BMP280;48929;47.910;20.390;2023-02-28T14:46:35;100335.94;;;6.28
62845;BMP280;48929;47.910;20.390;2023-02-28T14:49:07;100338.50;;;6.28
62845;BMP280;48929;47.910;20.390;2023-02-28T14:51:40;100337.84;;;6.32
62845;BMP280;48929;47.910;20.390;2023-02-28T14:54:14;100340.53;;;6.37
62845;BMP280;48929;47.910;20.390;2023-02-28T14:56:43;100338.91;;;6.43
62845;BMP280;48929;47.910;20.390;2023-02-28T14:59:25;100334.09;;;6.46